sensor_id;sensor_type;location;lat;lon;timestamp;temperature;humidity
11532;DHT22;5822;51.000;5.874;2022-09-12T00:01:24;16.80;99.90
11532;DHT22;5822;51.000;5.874;2022-09-12T00:03:54;16.80;99.90
11532;DHT22;5822;51.000;5.874;2022-09-12T00:06:24;16.40;99.90
11532;DHT22;5822;51.000;5.874;2022-09-12T00:08:52;16.20;99.90
11532;DHT22;5822;51.000;5.874;2022-09-12T00:11:18;16.10;99.90
11532;DHT22;5822;51.000;5.874;2022-09-12T00:13:44;16.10;99.90
11532;DHT22;5822;51.000;5.874;2022-09-12T00:16:21;16.10;99.90
11532;DHT22;5822;51.000;5.874;2022-09-12T00:18:48;16.20;99.90
11532;DHT22;5822;51.000;5.874;2022-09-12T00:21:15;16.20;99.90
11532;DHT22;5822;51.000;5.874;2022-09-12T00:23:41;16.10;99.90
11532;DHT22;5822;51.000;5.874;2022-09-12T00:26:07;16.00;99.90
11532;DHT22;5822;51.000;5.874;2022-09-12T00:28:34;16.00;99.90
11532;DHT22;5822;51.000;5.874;2022-09-12T00:31:07;16.00;99.90
11532;DHT22;5822;51.000;5.874;2022-09-12T00:33:34;16.20;99.90
11532;DHT22;5822;51.000;5.874;2022-09-12T00:36:04;16.30;99.90
11532;DHT22;5822;51.000;5.874;2022-09-12T00:38:31;16.10;99.90
11532;DHT22;5822;51.000;5.874;2022-09-12T00:40:57;15.90;99.90
11532;DHT22;5822;51.000;5.874;2022-09-12T00:45:55;15.80;99.90
11532;DHT22;5822;51.000;5.874;2022-09-12T00:48:29;15.70;99.90
11532;DHT22;5822;51.000;5.874;2022-09-12T00:50:57;15.80;99.90
11532;DHT22;5822;51.000;5.874;2022-09-12T00:53:23;16.10;99.90
11532;DHT22;5822;51.000;5.874;2022-09-12T00:55:50;16.20;99.90
11532;DHT22;5822;51.000;5.874;2022-09-12T00:58:28;16.10;99.90
11532;DHT22;5822;51.000;5.874;2022-09-12T01:00:56;15.90;99.90
11532;DHT22;5822;51.000;5.874;2022-09-12T01:03:22;15.80;99.90
11532;DHT22;5822;51.000;5.874;2022-09-12T01:08:23;16.10;99.90
11532;DHT22;5822;51.000;5.874;2022-09-12T01:10:49;16.10;99.90
11532;DHT22;5822;51.000;5.874;2022-09-12T01:13:15;16.00;99.90
11532;DHT22;5822;51.000;5.874;2022-09-12T01:15:40;15.90;99.90
11532;DHT22;5822;51.000;5.874;2022-09-12T01:18:27;15.80;99.90
11532;DHT22;5822;51.000;5.874;2022-09-12T01:21:13;15.80;99.90
11532;DHT22;5822;51.000;5.874;2022-09-12T01:35:34;16.10;99.90
11532;DHT22;5822;51.000;5.874;2022-09-12T01:40:48;16.00;99.90
11532;DHT22;5822;51.000;5.874;2022-09-12T01:43:34;16.00;99.90
11532;DHT22;5822;51.000;5.874;2022-09-12T01:46:15;15.90;99.90
11532;DHT22;5822;51.000;5.874;2022-09-12T01:49:09;15.80;99.90
11532;DHT22;5822;51.000;5.874;2022-09-12T01:51:41;16.00;99.90
11532;DHT22;5822;51.000;5.874;2022-09-12T01:54:16;16.00;99.90
11532;DHT22;5822;51.000;5.874;2022-09-12T01:56:45;15.80;99.90
11532;DHT22;5822;51.000;5.874;2022-09-12T01:59:20;15.70;99.90
11532;DHT22;5822;51.000;5.874;2022-09-12T02:02:29;15.70;99.90
11532;DHT22;5822;51.000;5.874;2022-09-12T02:05:13;15.80;99.90
11532;DHT22;5822;51.000;5.874;2022-09-12T02:07:48;16.00;99.90
11532;DHT22;5822;51.000;5.874;2022-09-12T02:10:24;16.00;99.90
11532;DHT22;5822;51.000;5.874;2022-09-12T02:12:59;15.80;99.90
11532;DHT22;5822;51.000;5.874;2022-09-12T02:15:31;15.60;99.90
11532;DHT22;5822;51.000;5.874;2022-09-12T02:17:59;15.60;99.90
11532;DHT22;5822;51.000;5.874;2022-09-12T02:20:33;15.40;99.90
11532;DHT22;5822;51.000;5.874;2022-09-12T02:22:59;15.40;99.90
11532;DHT22;5822;51.000;5.874;2022-09-12T02:25:28;15.40;99.90
11532;DHT22;5822;51.000;5.874;2022-09-12T02:28:01;15.40;99.90
11532;DHT22;5822;51.000;5.874;2022-09-12T02:30:35;15.40;99.90
11532;DHT22;5822;51.000;5.874;2022-09-12T02:33:08;15.40;99.90
11532;DHT22;5822;51.000;5.874;2022-09-12T02:35:44;15.30;99.90
11532;DHT22;5822;51.000;5.874;2022-09-12T02:38:32;15.30;99.90
11532;DHT22;5822;51.000;5.874;2022-09-12T02:41:02;15.30;99.90
11532;DHT22;5822;51.000;5.874;2022-09-12T02:43:28;15.40;99.90
11532;DHT22;5822;51.000;5.874;2022-09-12T02:45:53;15.40;99.90
11532;DHT22;5822;51.000;5.874;2022-09-12T02:48:26;15.50;99.90
11532;DHT22;5822;51.000;5.874;2022-09-12T02:50:53;15.40;99.90
11532;DHT22;5822;51.000;5.874;2022-09-12T02:53:19;15.40;99.90
11532;DHT22;5822;51.000;5.874;2022-09-12T02:55:45;15.40;99.90
11532;DHT22;5822;51.000;5.874;2022-09-12T02:58:16;15.40;99.90
11532;DHT22;5822;51.000;5.874;2022-09-12T03:00:58;15.40;99.90
11532;DHT22;5822;51.000;5.874;2022-09-12T03:06:00;15.30;99.90
11532;DHT22;5822;51.000;5.874;2022-09-12T03:11:24;15.20;99.90
11532;DHT22;5822;51.000;5.874;2022-09-12T03:16:44;15.30;99.90
11532;DHT22;5822;51.000;5.874;2022-09-12T03:19:24;15.30;99.90
11532;DHT22;5822;51.000;5.874;2022-09-12T03:22:13;15.30;99.90
11532;DHT22;5822;51.000;5.874;2022-09-12T03:24:53;15.30;99.90
11532;DHT22;5822;51.000;5.874;2022-09-12T03:29:56;15.30;99.90
11532;DHT22;5822;51.000;5.874;2022-09-12T03:32:42;15.20;99.90
11532;DHT22;5822;51.000;5.874;2022-09-12T03:35:09;15.20;99.90
11532;DHT22;5822;51.000;5.874;2022-09-12T03:37:35;15.20;99.90
11532;DHT22;5822;51.000;5.874;2022-09-12T03:40:03;15.10;99.90
11532;DHT22;5822;51.000;5.874;2022-09-12T03:42:28;15.10;99.90
11532;DHT22;5822;51.000;5.874;2022-09-12T03:44:54;15.10;99.90
11532;DHT22;5822;51.000;5.874;2022-09-12T03:47:20;15.20;99.90
11532;DHT22;5822;51.000;5.874;2022-09-12T03:49:45;15.20;99.90
11532;DHT22;5822;51.000;5.874;2022-09-12T03:52:11;15.10;99.90
11532;DHT22;5822;51.000;5.874;2022-09-12T03:54:36;15.10;99.90
11532;DHT22;5822;51.000;5.874;2022-09-12T03:57:02;15.10;99.90
11532;DHT22;5822;51.000;5.874;2022-09-12T03:59:28;15.10;99.90
11532;DHT22;5822;51.000;5.874;2022-09-12T04:01:53;15.10;99.90
11532;DHT22;5822;51.000;5.874;2022-09-12T04:04:19;15.20;99.90
11532;DHT22;5822;51.000;5.874;2022-09-12T04:06:44;15.20;99.90
11532;DHT22;5822;51.000;5.874;2022-09-12T04:09:10;15.10;99.90
11532;DHT22;5822;51.000;5.874;2022-09-12T04:11:36;15.10;99.90
11532;DHT22;5822;51.000;5.874;2022-09-12T04:14:01;15.10;99.90
11532;DHT22;5822;51.000;5.874;2022-09-12T04:16:27;15.10;99.90
11532;DHT22;5822;51.000;5.874;2022-09-12T04:18:53;15.10;99.90
11532;DHT22;5822;51.000;5.874;2022-09-12T04:21:19;15.10;99.90
11532;DHT22;5822;51.000;5.874;2022-09-12T04:23:48;15.10;99.90
11532;DHT22;5822;51.000;5.874;2022-09-12T04:26:14;15.10;99.90
11532;DHT22;5822;51.000;5.874;2022-09-12T04:28:41;15.00;99.90
11532;DHT22;5822;51.000;5.874;2022-09-12T04:31:11;15.00;99.90
11532;DHT22;5822;51.000;5.874;2022-09-12T04:33:38;15.00;99.90
11532;DHT22;5822;51.000;5.874;2022-09-12T04:36:15;15.00;99.90
11532;DHT22;5822;51.000;5.874;2022-09-12T04:38:42;15.00;99.90
11532;DHT22;5822;51.000;5.874;2022-09-12T04:41:26;15.00;99.90
11532;DHT22;5822;51.000;5.874;2022-09-12T04:43:55;14.90;99.90
11532;DHT22;5822;51.000;5.874;2022-09-12T04:46:28;14.90;99.90
11532;DHT22;5822;51.000;5.874;2022-09-12T04:48:54;15.00;99.90
11532;DHT22;5822;51.000;5.874;2022-09-12T04:51:22;15.00;99.90
11532;DHT22;5822;51.000;5.874;2022-09-12T04:53:52;15.10;99.90
11532;DHT22;5822;51.000;5.874;2022-09-12T04:56:19;15.00;99.90
11532;DHT22;5822;51.000;5.874;2022-09-12T04:58:45;15.10;99.90
11532;DHT22;5822;51.000;5.874;2022-09-12T05:01:15;15.10;99.90
11532;DHT22;5822;51.000;5.874;2022-09-12T05:03:42;15.20;99.90
11532;DHT22;5822;51.000;5.874;2022-09-12T05:06:10;15.30;99.90
11532;DHT22;5822;51.000;5.874;2022-09-12T05:08:36;15.40;99.90
11532;DHT22;5822;51.000;5.874;2022-09-12T05:11:06;15.30;99.90
11532;DHT22;5822;51.000;5.874;2022-09-12T05:13:33;15.30;99.90
11532;DHT22;5822;51.000;5.874;2022-09-12T05:15:59;15.20;99.90
11532;DHT22;5822;51.000;5.874;2022-09-12T05:18:26;15.30;99.90
11532;DHT22;5822;51.000;5.874;2022-09-12T05:20:53;15.30;99.90
11532;DHT22;5822;51.000;5.874;2022-09-12T05:23:20;15.30;99.90
11532;DHT22;5822;51.000;5.874;2022-09-12T05:25:52;15.30;99.90
11532;DHT22;5822;51.000;5.874;2022-09-12T05:28:19;15.30;99.90
11532;DHT22;5822;51.000;5.874;2022-09-12T05:30:45;15.30;99.90
11532;DHT22;5822;51.000;5.874;2022-09-12T05:33:11;15.10;99.90
11532;DHT22;5822;51.000;5.874;2022-09-12T05:35:37;15.10;99.90
11532;DHT22;5822;51.000;5.874;2022-09-12T05:38:05;15.10;99.90
11532;DHT22;5822;51.000;5.874;2022-09-12T05:40:30;15.00;99.90
11532;DHT22;5822;51.000;5.874;2022-09-12T05:42:56;15.00;99.90
11532;DHT22;5822;51.000;5.874;2022-09-12T05:45:22;15.10;99.90
11532;DHT22;5822;51.000;5.874;2022-09-12T05:47:48;15.20;99.90
11532;DHT22;5822;51.000;5.874;2022-09-12T05:50:14;15.20;99.90
11532;DHT22;5822;51.000;5.874;2022-09-12T05:52:39;15.40;99.90
11532;DHT22;5822;51.000;5.874;2022-09-12T05:55:05;15.40;99.90
11532;DHT22;5822;51.000;5.874;2022-09-12T05:57:31;15.50;99.90
11532;DHT22;5822;51.000;5.874;2022-09-12T05:59:57;15.60;99.90
11532;DHT22;5822;51.000;5.874;2022-09-12T06:02:23;15.90;99.90
11532;DHT22;5822;51.000;5.874;2022-09-12T06:04:49;16.20;99.90
11532;DHT22;5822;51.000;5.874;2022-09-12T06:07:14;16.20;99.90
11532;DHT22;5822;51.000;5.874;2022-09-12T06:09:40;15.90;99.90
11532;DHT22;5822;51.000;5.874;2022-09-12T06:12:05;15.70;99.90
11532;DHT22;5822;51.000;5.874;2022-09-12T06:14:33;15.60;99.90
11532;DHT22;5822;51.000;5.874;2022-09-12T06:16:58;15.70;99.90
11532;DHT22;5822;51.000;5.874;2022-09-12T06:19:24;15.70;99.90
11532;DHT22;5822;51.000;5.874;2022-09-12T06:21:52;15.90;99.90
11532;DHT22;5822;51.000;5.874;2022-09-12T06:24:19;16.00;99.90
11532;DHT22;5822;51.000;5.874;2022-09-12T06:26:46;16.10;99.90
11532;DHT22;5822;51.000;5.874;2022-09-12T06:29:12;16.20;99.90
11532;DHT22;5822;51.000;5.874;2022-09-12T06:31:39;16.20;99.90
11532;DHT22;5822;51.000;5.874;2022-09-12T06:34:11;16.20;99.90
11532;DHT22;5822;51.000;5.874;2022-09-12T06:36:46;16.40;99.90
11532;DHT22;5822;51.000;5.874;2022-09-12T06:39:16;16.40;99.90
11532;DHT22;5822;51.000;5.874;2022-09-12T06:41:42;16.60;99.90
11532;DHT22;5822;51.000;5.874;2022-09-12T06:44:14;16.60;99.90
11532;DHT22;5822;51.000;5.874;2022-09-12T06:46:40;16.70;99.90
11532;DHT22;5822;51.000;5.874;2022-09-12T06:49:06;16.80;99.90
11532;DHT22;5822;51.000;5.874;2022-09-12T06:51:32;16.70;99.90
11532;DHT22;5822;51.000;5.874;2022-09-12T06:54:01;16.80;99.90
11532;DHT22;5822;51.000;5.874;2022-09-12T06:56:27;16.90;99.90
11532;DHT22;5822;51.000;5.874;2022-09-12T06:58:55;17.00;99.90
11532;DHT22;5822;51.000;5.874;2022-09-12T07:01:23;17.00;99.90
11532;DHT22;5822;51.000;5.874;2022-09-12T07:03:55;17.10;99.90
11532;DHT22;5822;51.000;5.874;2022-09-12T07:06:23;16.90;99.90
11532;DHT22;5822;51.000;5.874;2022-09-12T07:08:49;16.80;99.90
11532;DHT22;5822;51.000;5.874;2022-09-12T07:13:48;16.80;99.90
11532;DHT22;5822;51.000;5.874;2022-09-12T07:16:14;16.90;99.90
11532;DHT22;5822;51.000;5.874;2022-09-12T07:18:40;17.00;99.90
11532;DHT22;5822;51.000;5.874;2022-09-12T07:21:11;17.00;99.90
11532;DHT22;5822;51.000;5.874;2022-09-12T07:23:37;17.20;99.90
11532;DHT22;5822;51.000;5.874;2022-09-12T07:26:04;17.20;99.90
11532;DHT22;5822;51.000;5.874;2022-09-12T07:28:31;17.30;99.90
11532;DHT22;5822;51.000;5.874;2022-09-12T07:31:03;17.40;99.90
11532;DHT22;5822;51.000;5.874;2022-09-12T07:33:29;17.50;99.90
11532;DHT22;5822;51.000;5.874;2022-09-12T07:36:00;17.50;99.90
11532;DHT22;5822;51.000;5.874;2022-09-12T07:38:25;17.50;99.90
11532;DHT22;5822;51.000;5.874;2022-09-12T07:40:51;17.50;99.90
11532;DHT22;5822;51.000;5.874;2022-09-12T07:43:16;17.50;99.90
11532;DHT22;5822;51.000;5.874;2022-09-12T07:45:42;17.50;99.90
11532;DHT22;5822;51.000;5.874;2022-09-12T07:48:08;17.40;99.90
11532;DHT22;5822;51.000;5.874;2022-09-12T07:50:34;17.30;99.90
11532;DHT22;5822;51.000;5.874;2022-09-12T07:53:04;17.30;99.90
11532;DHT22;5822;51.000;5.874;2022-09-12T07:55:30;17.40;99.90
11532;DHT22;5822;51.000;5.874;2022-09-12T07:57:56;17.60;99.90
11532;DHT22;5822;51.000;5.874;2022-09-12T08:00:22;17.60;99.90
11532;DHT22;5822;51.000;5.874;2022-09-12T08:02:51;17.70;99.90
11532;DHT22;5822;51.000;5.874;2022-09-12T08:05:18;17.70;99.90
11532;DHT22;5822;51.000;5.874;2022-09-12T08:07:45;17.70;99.90
11532;DHT22;5822;51.000;5.874;2022-09-12T08:10:11;17.60;99.90
11532;DHT22;5822;51.000;5.874;2022-09-12T08:12:36;17.70;99.90
11532;DHT22;5822;51.000;5.874;2022-09-12T08:15:02;17.80;99.90
11532;DHT22;5822;51.000;5.874;2022-09-12T08:17:28;17.80;99.90
11532;DHT22;5822;51.000;5.874;2022-09-12T08:19:54;17.90;99.90
11532;DHT22;5822;51.000;5.874;2022-09-12T08:22:20;17.90;99.90
11532;DHT22;5822;51.000;5.874;2022-09-12T08:24:47;17.90;99.90
11532;DHT22;5822;51.000;5.874;2022-09-12T08:27:13;17.90;99.90
11532;DHT22;5822;51.000;5.874;2022-09-12T08:29:39;18.00;99.90
11532;DHT22;5822;51.000;5.874;2022-09-12T08:32:05;18.00;99.90
11532;DHT22;5822;51.000;5.874;2022-09-12T08:34:31;18.00;99.90
11532;DHT22;5822;51.000;5.874;2022-09-12T08:36:56;18.00;99.90
11532;DHT22;5822;51.000;5.874;2022-09-12T08:39:22;18.00;99.90
11532;DHT22;5822;51.000;5.874;2022-09-12T08:42:00;18.10;99.90
11532;DHT22;5822;51.000;5.874;2022-09-12T08:54:57;18.10;99.90
11532;DHT22;5822;51.000;5.874;2022-09-12T08:57:24;18.20;99.90
11532;DHT22;5822;51.000;5.874;2022-09-12T08:59:50;18.20;99.90
11532;DHT22;5822;51.000;5.874;2022-09-12T09:05:22;18.20;99.90
11532;DHT22;5822;51.000;5.874;2022-09-12T09:16:38;18.20;99.90
11532;DHT22;5822;51.000;5.874;2022-09-12T09:19:11;18.30;99.90
11532;DHT22;5822;51.000;5.874;2022-09-12T09:21:56;18.30;99.90
11532;DHT22;5822;51.000;5.874;2022-09-12T09:24:52;18.30;99.90
11532;DHT22;5822;51.000;5.874;2022-09-12T09:27:30;18.30;99.90
11532;DHT22;5822;51.000;5.874;2022-09-12T09:29:57;18.40;99.90
11532;DHT22;5822;51.000;5.874;2022-09-12T09:32:33;18.40;99.90
11532;DHT22;5822;51.000;5.874;2022-09-12T09:35:10;18.40;99.90
11532;DHT22;5822;51.000;5.874;2022-09-12T09:40:23;18.50;99.90
11532;DHT22;5822;51.000;5.874;2022-09-12T09:45:26;18.60;99.90
11532;DHT22;5822;51.000;5.874;2022-09-12T09:50:23;18.60;99.90
11532;DHT22;5822;51.000;5.874;2022-09-12T09:52:50;18.60;99.90
11532;DHT22;5822;51.000;5.874;2022-09-12T09:55:25;18.60;99.90
11532;DHT22;5822;51.000;5.874;2022-09-12T09:57:52;18.60;99.90
11532;DHT22;5822;51.000;5.874;2022-09-12T10:00:33;18.60;99.90
11532;DHT22;5822;51.000;5.874;2022-09-12T10:06:01;18.60;99.90
11532;DHT22;5822;51.000;5.874;2022-09-12T10:08:33;18.60;99.90
11532;DHT22;5822;51.000;5.874;2022-09-12T10:11:06;18.70;99.90
11532;DHT22;5822;51.000;5.874;2022-09-12T10:16:18;18.80;99.90
11532;DHT22;5822;51.000;5.874;2022-09-12T10:18:44;18.60;99.90
11532;DHT22;5822;51.000;5.874;2022-09-12T10:21:22;18.80;99.90
11532;DHT22;5822;51.000;5.874;2022-09-12T10:23:58;18.80;99.90
11532;DHT22;5822;51.000;5.874;2022-09-12T10:26:26;18.80;99.90
11532;DHT22;5822;51.000;5.874;2022-09-12T10:28:56;18.70;99.90
11532;DHT22;5822;51.000;5.874;2022-09-12T10:31:46;18.80;99.90
11532;DHT22;5822;51.000;5.874;2022-09-12T10:34:28;18.80;99.90
11532;DHT22;5822;51.000;5.874;2022-09-12T10:37:03;18.80;99.90
11532;DHT22;5822;51.000;5.874;2022-09-12T10:39:30;18.80;99.90
11532;DHT22;5822;51.000;5.874;2022-09-12T10:41:57;18.90;99.90
11532;DHT22;5822;51.000;5.874;2022-09-12T10:44:27;18.90;99.90
11532;DHT22;5822;51.000;5.874;2022-09-12T10:46:55;18.90;99.90
11532;DHT22;5822;51.000;5.874;2022-09-12T10:49:30;18.90;99.90
11532;DHT22;5822;51.000;5.874;2022-09-12T10:52:22;18.90;99.90
11532;DHT22;5822;51.000;5.874;2022-09-12T10:54:48;19.00;99.90
11532;DHT22;5822;51.000;5.874;2022-09-12T11:00:06;19.00;99.90
11532;DHT22;5822;51.000;5.874;2022-09-12T11:02:50;19.00;99.90
11532;DHT22;5822;51.000;5.874;2022-09-12T11:11:49;19.00;99.90
11532;DHT22;5822;51.000;5.874;2022-09-12T11:16:43;19.00;99.90
11532;DHT22;5822;51.000;5.874;2022-09-12T11:26:05;19.00;99.90
11532;DHT22;5822;51.000;5.874;2022-09-12T11:31:22;19.20;99.90
11532;DHT22;5822;51.000;5.874;2022-09-12T11:33:50;19.10;99.90
11532;DHT22;5822;51.000;5.874;2022-09-12T11:39:07;19.20;99.90
11532;DHT22;5822;51.000;5.874;2022-09-12T11:41:40;19.10;99.90
11532;DHT22;5822;51.000;5.874;2022-09-12T11:44:28;19.10;99.90
11532;DHT22;5822;51.000;5.874;2022-09-12T11:46:56;19.10;99.90
11532;DHT22;5822;51.000;5.874;2022-09-12T11:49:27;19.10;99.90
11532;DHT22;5822;51.000;5.874;2022-09-12T11:52:06;19.20;99.90
11532;DHT22;5822;51.000;5.874;2022-09-12T11:54:40;19.20;99.90
11532;DHT22;5822;51.000;5.874;2022-09-12T12:02:56;19.20;99.90
11532;DHT22;5822;51.000;5.874;2022-09-12T12:05:30;19.20;99.90
11532;DHT22;5822;51.000;5.874;2022-09-12T12:08:00;19.20;99.90
11532;DHT22;5822;51.000;5.874;2022-09-12T12:10:37;19.20;99.90
11532;DHT22;5822;51.000;5.874;2022-09-12T12:15:51;19.20;99.90
11532;DHT22;5822;51.000;5.874;2022-09-12T12:18:26;19.30;99.90
11532;DHT22;5822;51.000;5.874;2022-09-12T12:20:53;19.30;99.90
11532;DHT22;5822;51.000;5.874;2022-09-12T12:23:23;19.30;99.90
11532;DHT22;5822;51.000;5.874;2022-09-12T12:31:08;19.30;99.90
11532;DHT22;5822;51.000;5.874;2022-09-12T12:36:33;19.30;99.90
11532;DHT22;5822;51.000;5.874;2022-09-12T12:41:57;19.40;99.90
11532;DHT22;5822;51.000;5.874;2022-09-12T12:47:22;19.40;99.90
11532;DHT22;5822;51.000;5.874;2022-09-12T12:53:05;19.40;99.90
11532;DHT22;5822;51.000;5.874;2022-09-12T12:58:30;19.40;99.90
11532;DHT22;5822;51.000;5.874;2022-09-12T13:01:12;19.40;99.90
11532;DHT22;5822;51.000;5.874;2022-09-12T13:06:32;19.50;99.90
11532;DHT22;5822;51.000;5.874;2022-09-12T13:09:18;19.50;99.90
11532;DHT22;5822;51.000;5.874;2022-09-12T13:11:45;19.50;99.90
11532;DHT22;5822;51.000;5.874;2022-09-12T13:17:04;19.50;99.90
11532;DHT22;5822;51.000;5.874;2022-09-12T13:19:32;19.50;99.90
11532;DHT22;5822;51.000;5.874;2022-09-12T13:22:08;19.50;99.90
11532;DHT22;5822;51.000;5.874;2022-09-12T13:24:45;19.50;99.90
11532;DHT22;5822;51.000;5.874;2022-09-12T13:27:22;19.60;99.90
11532;DHT22;5822;51.000;5.874;2022-09-12T13:29:48;19.60;99.90
11532;DHT22;5822;51.000;5.874;2022-09-12T13:32:15;19.70;99.90
11532;DHT22;5822;51.000;5.874;2022-09-12T13:35:11;19.70;99.90
11532;DHT22;5822;51.000;5.874;2022-09-12T13:40:35;19.80;99.90
11532;DHT22;5822;51.000;5.874;2022-09-12T13:45:39;19.90;99.90
11532;DHT22;5822;51.000;5.874;2022-09-12T13:48:12;20.00;99.90
11532;DHT22;5822;51.000;5.874;2022-09-12T13:50:53;20.00;99.90
11532;DHT22;5822;51.000;5.874;2022-09-12T13:53:22;20.00;99.90
11532;DHT22;5822;51.000;5.874;2022-09-12T13:55:52;20.00;99.90
11532;DHT22;5822;51.000;5.874;2022-09-12T13:58:25;20.10;99.90
11532;DHT22;5822;51.000;5.874;2022-09-12T14:03:50;20.10;99.90
11532;DHT22;5822;51.000;5.874;2022-09-12T14:09:12;20.20;99.90
11532;DHT22;5822;51.000;5.874;2022-09-12T14:11:38;20.20;99.90
11532;DHT22;5822;51.000;5.874;2022-09-12T14:14:06;20.20;99.90
11532;DHT22;5822;51.000;5.874;2022-09-12T14:16:41;20.30;99.90
11532;DHT22;5822;51.000;5.874;2022-09-12T14:19:09;20.30;99.90
11532;DHT22;5822;51.000;5.874;2022-09-12T14:21:36;20.20;99.90
11532;DHT22;5822;51.000;5.874;2022-09-12T14:24:04;20.20;99.90
11532;DHT22;5822;51.000;5.874;2022-09-12T14:26:35;20.30;99.90
11532;DHT22;5822;51.000;5.874;2022-09-12T14:29:04;20.30;99.90
11532;DHT22;5822;51.000;5.874;2022-09-12T14:31:35;20.40;99.90
11532;DHT22;5822;51.000;5.874;2022-09-12T14:34:17;20.40;99.90
11532;DHT22;5822;51.000;5.874;2022-09-12T14:36:51;20.50;99.90
11532;DHT22;5822;51.000;5.874;2022-09-12T14:39:30;20.40;99.90
11532;DHT22;5822;51.000;5.874;2022-09-12T14:42:14;20.40;99.90
11532;DHT22;5822;51.000;5.874;2022-09-12T14:44:48;20.50;99.90
11532;DHT22;5822;51.000;5.874;2022-09-12T14:47:22;20.50;99.90
11532;DHT22;5822;51.000;5.874;2022-09-12T14:49:49;20.50;99.90
11532;DHT22;5822;51.000;5.874;2022-09-12T14:52:33;20.50;99.90
11532;DHT22;5822;51.000;5.874;2022-09-12T14:55:01;20.60;99.90
11532;DHT22;5822;51.000;5.874;2022-09-12T14:57:34;20.60;99.90
11532;DHT22;5822;51.000;5.874;2022-09-12T15:02:42;20.50;99.90
11532;DHT22;5822;51.000;5.874;2022-09-12T15:13:02;20.50;99.90
11532;DHT22;5822;51.000;5.874;2022-09-12T15:15:29;20.40;99.90
11532;DHT22;5822;51.000;5.874;2022-09-12T15:17:54;20.40;99.90
11532;DHT22;5822;51.000;5.874;2022-09-12T15:20:20;20.40;99.90
11532;DHT22;5822;51.000;5.874;2022-09-12T15:22:46;20.40;99.90
11532;DHT22;5822;51.000;5.874;2022-09-12T15:25:12;20.40;99.90
11532;DHT22;5822;51.000;5.874;2022-09-12T15:27:38;20.40;99.90
11532;DHT22;5822;51.000;5.874;2022-09-12T15:30:06;20.40;99.90
11532;DHT22;5822;51.000;5.874;2022-09-12T15:32:33;20.40;99.90
11532;DHT22;5822;51.000;5.874;2022-09-12T15:34:58;20.40;99.90
11532;DHT22;5822;51.000;5.874;2022-09-12T15:37:24;20.40;99.90
11532;DHT22;5822;51.000;5.874;2022-09-12T15:39:50;20.40;99.90
11532;DHT22;5822;51.000;5.874;2022-09-12T15:42:26;20.40;99.90
11532;DHT22;5822;51.000;5.874;2022-09-12T15:44:52;20.40;99.90
11532;DHT22;5822;51.000;5.874;2022-09-12T15:47:19;20.40;99.90
11532;DHT22;5822;51.000;5.874;2022-09-12T15:49:46;20.30;99.90
11532;DHT22;5822;51.000;5.874;2022-09-12T15:52:14;20.30;99.90
11532;DHT22;5822;51.000;5.874;2022-09-12T15:54:41;20.30;99.90
11532;DHT22;5822;51.000;5.874;2022-09-12T15:57:07;20.30;99.90
11532;DHT22;5822;51.000;5.874;2022-09-12T15:59:34;20.30;99.90
11532;DHT22;5822;51.000;5.874;2022-09-12T16:01:59;20.30;99.90
11532;DHT22;5822;51.000;5.874;2022-09-12T16:04:27;20.30;99.90
11532;DHT22;5822;51.000;5.874;2022-09-12T16:06:53;20.30;99.90
11532;DHT22;5822;51.000;5.874;2022-09-12T16:09:20;20.30;99.90
11532;DHT22;5822;51.000;5.874;2022-09-12T16:11:47;20.30;99.90
11532;DHT22;5822;51.000;5.874;2022-09-12T16:14:14;20.30;99.90
11532;DHT22;5822;51.000;5.874;2022-09-12T16:16:40;20.30;99.90
11532;DHT22;5822;51.000;5.874;2022-09-12T16:19:06;20.20;99.90
11532;DHT22;5822;51.000;5.874;2022-09-12T16:21:33;20.20;99.90
11532;DHT22;5822;51.000;5.874;2022-09-12T16:23:59;20.20;99.90
11532;DHT22;5822;51.000;5.874;2022-09-12T16:26:24;20.20;99.90
11532;DHT22;5822;51.000;5.874;2022-09-12T16:28:54;20.20;99.90
11532;DHT22;5822;51.000;5.874;2022-09-12T16:31:20;20.20;99.90
11532;DHT22;5822;51.000;5.874;2022-09-12T16:33:47;20.20;99.90
11532;DHT22;5822;51.000;5.874;2022-09-12T16:36:14;20.20;99.90
11532;DHT22;5822;51.000;5.874;2022-09-12T16:38:45;20.20;99.90
11532;DHT22;5822;51.000;5.874;2022-09-12T16:41:12;20.20;99.90
11532;DHT22;5822;51.000;5.874;2022-09-12T16:43:38;20.20;99.90
11532;DHT22;5822;51.000;5.874;2022-09-12T16:46:14;20.20;99.90
11532;DHT22;5822;51.000;5.874;2022-09-12T16:48:42;20.20;99.90
11532;DHT22;5822;51.000;5.874;2022-09-12T16:51:09;20.20;99.90
11532;DHT22;5822;51.000;5.874;2022-09-12T16:53:36;20.20;99.90
11532;DHT22;5822;51.000;5.874;2022-09-12T16:56:03;20.10;99.90
11532;DHT22;5822;51.000;5.874;2022-09-12T16:58:34;20.10;99.90
11532;DHT22;5822;51.000;5.874;2022-09-12T17:01:08;20.10;99.90
11532;DHT22;5822;51.000;5.874;2022-09-12T17:03:34;20.10;99.90
11532;DHT22;5822;51.000;5.874;2022-09-12T17:06:03;20.10;99.90
11532;DHT22;5822;51.000;5.874;2022-09-12T17:08:29;20.10;99.90
11532;DHT22;5822;51.000;5.874;2022-09-12T17:10:59;20.10;99.90
11532;DHT22;5822;51.000;5.874;2022-09-12T17:13:25;20.10;99.90
11532;DHT22;5822;51.000;5.874;2022-09-12T17:15:51;20.10;99.90
11532;DHT22;5822;51.000;5.874;2022-09-12T17:18:17;20.10;99.90
11532;DHT22;5822;51.000;5.874;2022-09-12T17:20:43;20.10;99.90
11532;DHT22;5822;51.000;5.874;2022-09-12T17:23:09;20.10;99.90
11532;DHT22;5822;51.000;5.874;2022-09-12T17:25:34;20.10;99.90
11532;DHT22;5822;51.000;5.874;2022-09-12T17:28:00;20.10;99.90
11532;DHT22;5822;51.000;5.874;2022-09-12T17:30:29;20.10;99.90
11532;DHT22;5822;51.000;5.874;2022-09-12T17:32:55;20.10;99.90
11532;DHT22;5822;51.000;5.874;2022-09-12T17:35:20;20.10;99.90
11532;DHT22;5822;51.000;5.874;2022-09-12T17:37:46;20.10;99.90
11532;DHT22;5822;51.000;5.874;2022-09-12T17:40:12;20.10;99.90
11532;DHT22;5822;51.000;5.874;2022-09-12T17:42:38;20.00;99.90
11532;DHT22;5822;51.000;5.874;2022-09-12T17:45:05;20.10;99.90
11532;DHT22;5822;51.000;5.874;2022-09-12T17:47:31;20.10;99.90
11532;DHT22;5822;51.000;5.874;2022-09-12T17:49:57;20.10;99.90
11532;DHT22;5822;51.000;5.874;2022-09-12T17:52:24;20.10;99.90
11532;DHT22;5822;51.000;5.874;2022-09-12T17:54:50;20.10;99.90
11532;DHT22;5822;51.000;5.874;2022-09-12T17:57:15;20.10;99.90
11532;DHT22;5822;51.000;5.874;2022-09-12T17:59:41;20.10;99.90
11532;DHT22;5822;51.000;5.874;2022-09-12T18:02:12;20.10;99.90
11532;DHT22;5822;51.000;5.874;2022-09-12T18:04:42;20.10;99.90
11532;DHT22;5822;51.000;5.874;2022-09-12T18:07:15;20.10;99.90
11532;DHT22;5822;51.000;5.874;2022-09-12T18:09:43;20.10;99.90
11532;DHT22;5822;51.000;5.874;2022-09-12T18:12:09;20.00;99.90
11532;DHT22;5822;51.000;5.874;2022-09-12T18:14:35;20.00;99.90
11532;DHT22;5822;51.000;5.874;2022-09-12T18:17:00;20.00;99.90
11532;DHT22;5822;51.000;5.874;2022-09-12T18:19:27;20.00;99.90
11532;DHT22;5822;51.000;5.874;2022-09-12T18:21:54;20.00;99.90
11532;DHT22;5822;51.000;5.874;2022-09-12T18:24:20;20.00;99.90
11532;DHT22;5822;51.000;5.874;2022-09-12T18:26:46;20.00;99.90
11532;DHT22;5822;51.000;5.874;2022-09-12T18:29:12;20.00;99.90